createdAt,value
2017-06-24T00:01:01.975Z,14.1
2017-06-24T00:02:20.647Z,14.1
2017-06-24T00:03:39.372Z,14.1
2017-06-24T00:04:58.114Z,14.1
2017-06-24T00:06:16.827Z,14
2017-06-24T00:07:35.543Z,13.9
2017-06-24T00:08:54.209Z,13.9
2017-06-24T00:10:12.884Z,13.9
2017-06-24T00:11:31.607Z,13.8
2017-06-24T00:12:50.314Z,13.7
2017-06-24T00:14:09.091Z,13.7
2017-06-24T00:15:27.830Z,13.7
2017-06-24T00:16:46.496Z,13.7
2017-06-24T00:18:05.170Z,13.7
2017-06-24T00:19:23.866Z,13.7
2017-06-24T00:20:42.571Z,13.6
2017-06-24T00:22:01.238Z,13.7
2017-06-24T00:23:19.955Z,13.7
2017-06-24T00:24:38.670Z,13.6
2017-06-24T00:25:57.426Z,13.6
2017-06-24T00:27:16.107Z,13.6
2017-06-24T00:28:34.779Z,13.5
2017-06-24T00:29:53.461Z,13.5
2017-06-24T00:31:12.140Z,13.4
2017-06-24T00:32:30.819Z,13.4
2017-06-24T00:33:49.482Z,13.3
2017-06-24T00:35:08.199Z,13.3
2017-06-24T00:36:26.908Z,13.3
2017-06-24T00:37:45.586Z,13.2
2017-06-24T00:39:04.258Z,13.2
2017-06-24T00:40:22.928Z,13.2
2017-06-24T00:41:41.674Z,13.1
2017-06-24T00:43:00.396Z,13.1
2017-06-24T00:44:19.142Z,13
2017-06-24T00:45:37.813Z,13
2017-06-24T00:46:56.512Z,13
2017-06-24T00:48:15.189Z,13
2017-06-24T00:49:33.887Z,13
2017-06-24T00:50:52.572Z,12.9
2017-06-24T00:52:11.311Z,12.8
2017-06-24T00:53:30.000Z,12.8
2017-06-24T00:54:48.727Z,12.7
2017-06-24T00:56:07.477Z,12.7
2017-06-24T00:57:26.152Z,12.7
2017-06-24T00:58:44.828Z,12.7
2017-06-24T01:00:03.549Z,12.7
2017-06-24T01:01:22.276Z,12.7
2017-06-24T01:02:40.966Z,12.6
2017-06-24T01:03:59.630Z,12.5
2017-06-24T01:05:18.305Z,12.5
2017-06-24T01:06:37.033Z,12.4
2017-06-24T01:07:55.714Z,12.4
2017-06-24T01:09:14.417Z,12.4
2017-06-24T01:10:33.089Z,12.3
2017-06-24T01:11:51.761Z,12.3
2017-06-24T01:13:10.455Z,12.3
2017-06-24T01:14:29.142Z,12.3
2017-06-24T01:15:47.811Z,12.3
2017-06-24T01:17:06.487Z,12.2
2017-06-24T01:18:25.194Z,12.2
2017-06-24T01:19:43.888Z,12.4
2017-06-24T01:21:02.573Z,12.5
2017-06-24T01:22:21.292Z,12.4
2017-06-24T01:23:40.004Z,12.3
2017-06-24T01:24:58.669Z,12.3
2017-06-24T01:26:17.434Z,12.3
2017-06-24T01:27:36.104Z,12.2
2017-06-24T01:28:54.792Z,12.1
2017-06-24T01:30:13.468Z,12.1
2017-06-24T01:31:32.180Z,12.1
2017-06-24T01:32:50.874Z,12.1
2017-06-24T01:34:09.579Z,12.1
2017-06-24T01:35:28.252Z,12.1
2017-06-24T01:36:46.931Z,12
2017-06-24T01:38:05.640Z,11.9
2017-06-24T01:39:24.358Z,11.9
2017-06-24T01:40:43.031Z,11.9
2017-06-24T01:42:01.744Z,11.8
2017-06-24T01:43:20.415Z,11.8
2017-06-24T01:44:39.122Z,11.7
2017-06-24T01:45:57.843Z,11.7
2017-06-24T01:47:16.563Z,11.7
2017-06-24T01:48:35.309Z,11.6
2017-06-24T01:49:54.029Z,11.6
2017-06-24T01:51:12.699Z,11.6
2017-06-24T01:52:31.390Z,11.5
2017-06-24T01:53:50.073Z,11.5
2017-06-24T01:55:08.760Z,11.5
2017-06-24T01:56:27.445Z,11.5
2017-06-24T01:57:46.110Z,11.5
2017-06-24T01:59:04.777Z,11.4
2017-06-24T02:00:23.474Z,11.5
2017-06-24T02:01:42.171Z,11.4
2017-06-24T02:03:00.845Z,11.4
2017-06-24T02:04:19.582Z,11.3
2017-06-24T02:05:38.290Z,11.3
2017-06-24T02:06:57.004Z,11.3
2017-06-24T02:08:15.669Z,11.3
2017-06-24T02:09:34.383Z,11.3
2017-06-24T02:10:53.077Z,11.3
2017-06-24T02:12:11.788Z,11.2
2017-06-24T02:13:30.470Z,11.3
2017-06-24T02:14:49.189Z,11.3
2017-06-24T02:16:07.860Z,11.3
2017-06-24T02:17:26.558Z,11.3
2017-06-24T02:18:45.227Z,11.2
2017-06-24T02:20:03.995Z,11.2
2017-06-24T02:21:22.687Z,11.2
2017-06-24T02:22:41.401Z,11.2
2017-06-24T02:24:00.076Z,11.2
2017-06-24T02:25:18.754Z,11.3
2017-06-24T02:26:37.447Z,11.5
2017-06-24T02:27:56.115Z,11.5
2017-06-24T02:29:14.813Z,11.6
2017-06-24T02:30:33.479Z,11.5
2017-06-24T02:31:52.213Z,11.5
2017-06-24T02:33:10.885Z,11.4
2017-06-24T02:34:29.568Z,11.3
2017-06-24T02:35:48.318Z,11.2
2017-06-24T02:37:07.001Z,11.2
2017-06-24T02:38:25.727Z,11.2
2017-06-24T02:39:44.402Z,11.1
2017-06-24T02:41:03.073Z,11
2017-06-24T02:42:21.779Z,11
2017-06-24T02:43:40.461Z,11
2017-06-24T02:44:59.147Z,10.9
2017-06-24T02:46:17.819Z,10.9
2017-06-24T02:47:36.513Z,10.9
2017-06-24T02:48:55.218Z,10.8
2017-06-24T02:50:13.919Z,10.8
2017-06-24T02:51:32.601Z,10.8
2017-06-24T02:52:51.304Z,10.8
2017-06-24T02:54:09.979Z,10.8
2017-06-24T02:55:28.651Z,10.8
2017-06-24T02:56:47.392Z,10.8
2017-06-24T02:58:06.092Z,10.8
2017-06-24T02:59:24.812Z,10.8
2017-06-24T03:00:43.477Z,10.8
2017-06-24T03:02:02.146Z,10.8
2017-06-24T03:03:20.850Z,10.8
2017-06-24T03:04:39.563Z,10.8
2017-06-24T03:05:58.288Z,10.9
2017-06-24T03:07:17.028Z,10.9
2017-06-24T03:08:35.719Z,10.8
2017-06-24T03:09:54.383Z,10.8
2017-06-24T03:11:13.058Z,10.8
2017-06-24T03:12:31.743Z,10.9
2017-06-24T03:13:50.462Z,10.9
2017-06-24T03:15:09.191Z,10.9
2017-06-24T03:16:27.867Z,10.9
2017-06-24T03:17:46.564Z,10.8
2017-06-24T03:19:05.269Z,10.9
2017-06-24T03:20:23.973Z,10.8
2017-06-24T03:21:42.642Z,10.8
2017-06-24T03:23:01.349Z,10.8
2017-06-24T03:24:20.031Z,10.8
2017-06-24T03:25:38.747Z,10.8
2017-06-24T03:26:57.434Z,10.8
2017-06-24T03:28:16.105Z,10.8
2017-06-24T03:29:34.814Z,10.8
2017-06-24T03:30:53.502Z,10.8
2017-06-24T03:32:12.167Z,10.9
2017-06-24T03:33:30.842Z,10.9
2017-06-24T03:34:49.576Z,10.9
2017-06-24T03:36:08.250Z,10.9
2017-06-24T03:37:26.920Z,10.9
2017-06-24T03:38:45.631Z,11
2017-06-24T03:40:04.358Z,11
2017-06-24T03:41:23.026Z,11
2017-06-24T03:42:41.724Z,11.1
2017-06-24T03:44:00.408Z,11.1
2017-06-24T03:45:19.115Z,11.1
2017-06-24T03:46:37.827Z,11.2
2017-06-24T03:47:56.494Z,11.2
2017-06-24T03:49:15.170Z,11.3
2017-06-24T03:50:33.882Z,11.3
2017-06-24T03:51:52.573Z,11.4
2017-06-24T03:53:11.259Z,11.4
2017-06-24T03:54:29.999Z,11.5
2017-06-24T03:55:48.679Z,11.5
2017-06-24T03:57:07.388Z,11.6
2017-06-24T03:58:26.112Z,11.6
2017-06-24T03:59:44.788Z,11.6
2017-06-24T04:01:03.486Z,11.7
2017-06-24T04:02:22.154Z,11.7
2017-06-24T04:03:40.840Z,11.8
2017-06-24T04:04:59.568Z,11.9
2017-06-24T04:06:18.257Z,11.9
2017-06-24T04:07:36.951Z,12
2017-06-24T04:08:55.632Z,12
2017-06-24T04:10:14.348Z,12
2017-06-24T04:11:33.092Z,12.1
2017-06-24T04:12:51.814Z,12.2
2017-06-24T04:14:10.540Z,12.2
2017-06-24T04:15:29.208Z,12.2
2017-06-24T04:16:47.901Z,12.3
2017-06-24T04:18:06.567Z,12.3
2017-06-24T04:19:25.287Z,12.3
2017-06-24T04:20:44.006Z,12.4
2017-06-24T04:22:02.688Z,12.5
2017-06-24T04:23:21.408Z,12.5
2017-06-24T04:24:40.082Z,12.6
2017-06-24T04:25:58.841Z,12.6
2017-06-24T04:27:17.587Z,12.7
2017-06-24T04:28:36.264Z,12.8
2017-06-24T04:29:54.986Z,12.8
2017-06-24T04:31:13.653Z,12.9
2017-06-24T04:32:32.422Z,12.9
2017-06-24T04:33:51.086Z,13
2017-06-24T04:35:09.766Z,13
2017-06-24T04:36:28.469Z,13
2017-06-24T04:37:47.172Z,13.1
2017-06-24T04:39:05.842Z,13.2
2017-06-24T04:40:24.576Z,13.2
2017-06-24T04:41:43.261Z,13.3
2017-06-24T04:43:01.953Z,13.3
2017-06-24T04:44:20.683Z,13.4
2017-06-24T04:45:39.387Z,13.4
2017-06-24T04:46:58.060Z,13.5
2017-06-24T04:48:16.753Z,13.6
2017-06-24T04:49:35.425Z,13.6
2017-06-24T04:50:54.126Z,13.7
2017-06-24T04:52:12.808Z,13.8
2017-06-24T04:53:31.489Z,13.8
2017-06-24T04:54:50.214Z,13.9
2017-06-24T04:56:08.903Z,14
2017-06-24T04:57:27.595Z,14
2017-06-24T04:58:46.328Z,14.1
2017-06-24T05:00:05.003Z,14.2
2017-06-24T05:01:23.680Z,14.5
2017-06-24T05:02:42.405Z,14.7
2017-06-24T05:04:01.087Z,14.9
2017-06-24T05:05:19.756Z,15
2017-06-24T05:06:38.421Z,15.1
2017-06-24T05:07:57.088Z,15.2
2017-06-24T05:09:15.802Z,15.3
2017-06-24T05:10:34.471Z,15.4
2017-06-24T05:11:53.140Z,15.4
2017-06-24T05:13:11.827Z,15.5
2017-06-24T05:14:30.505Z,15.5
2017-06-24T05:15:49.186Z,15.6
2017-06-24T05:17:07.859Z,15.6
2017-06-24T05:18:26.566Z,15.7
2017-06-24T05:19:45.310Z,15.8
2017-06-24T05:21:04.030Z,15.9
2017-06-24T05:22:22.708Z,15.9
2017-06-24T05:23:41.378Z,16
2017-06-24T05:25:00.065Z,16
2017-06-24T05:26:18.733Z,16.1
2017-06-24T05:27:37.425Z,16.1
2017-06-24T05:28:56.123Z,16.2
2017-06-24T05:30:14.814Z,16.2
2017-06-24T05:31:33.480Z,16.2
2017-06-24T05:32:52.185Z,16.3
2017-06-24T05:34:10.863Z,16.3
2017-06-24T05:35:29.573Z,16.4
2017-06-24T05:36:48.251Z,16.4
2017-06-24T05:38:06.951Z,16.5
2017-06-24T05:39:25.673Z,16.6
2017-06-24T05:40:44.405Z,16.6
2017-06-24T05:42:03.080Z,16.7
2017-06-24T05:43:21.752Z,16.8
2017-06-24T05:44:40.459Z,16.9
2017-06-24T05:45:59.175Z,16.9
2017-06-24T05:47:17.848Z,17
2017-06-24T05:48:36.564Z,17
2017-06-24T05:49:55.237Z,17.1
2017-06-24T05:51:13.959Z,17.1
2017-06-24T05:52:32.627Z,17.1
2017-06-24T05:53:51.299Z,17.2
2017-06-24T05:55:09.974Z,17.2
2017-06-24T05:56:28.658Z,17.3
2017-06-24T05:57:47.408Z,17.3
2017-06-24T05:59:06.138Z,17.4
2017-06-24T06:00:24.836Z,17.4
2017-06-24T06:01:43.518Z,17.4
2017-06-24T06:03:02.230Z,17.4
2017-06-24T06:04:20.904Z,17.4
2017-06-24T06:05:39.626Z,17.4
2017-06-24T06:06:58.328Z,17.4
2017-06-24T06:08:17.004Z,17.5
2017-06-24T06:09:35.676Z,17.5
2017-06-24T06:10:54.364Z,17.6
2017-06-24T06:12:13.043Z,17.7
2017-06-24T06:13:31.713Z,17.7
2017-06-24T06:14:50.432Z,17.7
2017-06-24T06:16:09.163Z,17.7
2017-06-24T06:17:27.895Z,17.8
2017-06-24T06:18:46.563Z,17.8
2017-06-24T06:20:05.287Z,17.9
2017-06-24T06:21:24.002Z,17.9
2017-06-24T06:22:42.678Z,17.8
2017-06-24T06:24:01.351Z,17.8
2017-06-24T06:25:20.076Z,18
2017-06-24T06:26:38.804Z,18.4
2017-06-24T06:27:57.525Z,18.5
2017-06-24T06:29:16.225Z,18.4
2017-06-24T06:30:34.896Z,18.4
2017-06-24T06:31:53.620Z,18.3
2017-06-24T06:33:12.370Z,18.3
2017-06-24T06:34:31.042Z,18.3
2017-06-24T06:35:49.726Z,18.3
2017-06-24T06:37:08.406Z,18.6
2017-06-24T06:38:27.102Z,18.7
2017-06-24T06:39:45.776Z,18.7
2017-06-24T06:41:04.449Z,18.8
2017-06-24T06:42:23.119Z,18.8
2017-06-24T06:43:41.795Z,18.6
2017-06-24T06:45:00.481Z,18.6
2017-06-24T06:46:19.171Z,18.7
2017-06-24T06:47:37.866Z,18.8
2017-06-24T06:48:56.573Z,19
2017-06-24T06:50:15.249Z,19.2
2017-06-24T06:51:33.945Z,19.2
2017-06-24T06:52:52.680Z,19.1
2017-06-24T06:54:11.385Z,19.1
2017-06-24T06:55:30.061Z,19
2017-06-24T06:56:48.730Z,18.8
2017-06-24T06:58:07.445Z,18.8
2017-06-24T06:59:26.123Z,18.6
2017-06-24T07:00:44.835Z,18.6
2017-06-24T07:02:03.521Z,18.7
2017-06-24T07:03:22.226Z,18.9
2017-06-24T07:04:40.910Z,18.9
2017-06-24T07:05:59.580Z,19.1
2017-06-24T07:07:18.252Z,19
2017-06-24T07:08:36.923Z,18.9
2017-06-24T07:09:55.667Z,18.9
2017-06-24T07:11:14.333Z,18.9
2017-06-24T07:12:33.005Z,19
2017-06-24T07:13:51.671Z,18.9
2017-06-24T07:15:10.355Z,19
2017-06-24T07:16:29.063Z,18.8
2017-06-24T07:17:47.764Z,18.8
2017-06-24T07:19:06.508Z,18.9
2017-06-24T07:20:25.180Z,18.9
2017-06-24T07:21:43.904Z,19.1
2017-06-24T07:23:02.627Z,19.3
2017-06-24T07:24:21.344Z,19.5
2017-06-24T07:25:40.015Z,19.6
2017-06-24T07:26:58.681Z,19.8
2017-06-24T07:28:17.390Z,19.8
2017-06-24T07:29:36.064Z,19.8
2017-06-24T07:30:54.763Z,19.8
2017-06-24T07:32:13.426Z,19.8
2017-06-24T07:33:32.150Z,19.9
2017-06-24T07:34:50.852Z,20
2017-06-24T07:36:09.590Z,20.1
2017-06-24T07:37:28.290Z,20.4
2017-06-24T07:38:46.960Z,20.6
2017-06-24T07:40:05.672Z,20.9
2017-06-24T07:41:24.376Z,21.1
2017-06-24T07:42:43.053Z,21.4
2017-06-24T07:44:01.725Z,21.5
2017-06-24T07:45:20.442Z,21.4
2017-06-24T07:46:39.144Z,21.4
2017-06-24T07:47:57.859Z,21.4
2017-06-24T07:49:16.588Z,21.4
2017-06-24T07:50:35.295Z,21.4
2017-06-24T07:51:54.022Z,21.3
2017-06-24T07:53:12.737Z,21.1
2017-06-24T07:54:31.414Z,21.1
2017-06-24T07:55:50.090Z,21.1
2017-06-24T07:57:08.807Z,21
2017-06-24T07:58:27.484Z,21
2017-06-24T07:59:46.156Z,21.1
2017-06-24T08:01:04.845Z,21.1
2017-06-24T08:02:23.573Z,20.9
2017-06-24T08:03:42.245Z,20.6
2017-06-24T08:05:00.970Z,20.3
2017-06-24T08:06:19.674Z,20.3
2017-06-24T08:07:38.370Z,20.2
2017-06-24T08:08:57.075Z,20.1
2017-06-24T08:10:15.752Z,20.1
2017-06-24T08:11:34.421Z,20
2017-06-24T08:12:53.095Z,20
2017-06-24T08:14:11.765Z,20
2017-06-24T08:15:30.439Z,19.9
2017-06-24T08:16:49.138Z,19.9
2017-06-24T08:18:07.837Z,19.9
2017-06-24T08:19:26.558Z,19.8
2017-06-24T08:20:45.222Z,19.8
2017-06-24T08:22:03.972Z,19.8
2017-06-24T08:23:22.675Z,19.8
2017-06-24T08:24:41.392Z,19.8
2017-06-24T08:26:00.063Z,19.8
2017-06-24T08:27:18.730Z,19.7
2017-06-24T08:28:37.445Z,19.8
2017-06-24T08:29:56.158Z,19.8
2017-06-24T08:31:14.863Z,19.8
2017-06-24T08:32:33.583Z,19.9
2017-06-24T08:33:52.314Z,19.9
2017-06-24T08:35:10.985Z,19.9
2017-06-24T08:36:29.653Z,19.9
2017-06-24T08:37:48.367Z,20
2017-06-24T08:39:07.053Z,20
2017-06-24T08:40:25.760Z,20.1
2017-06-24T08:41:44.478Z,20
2017-06-24T08:43:03.158Z,20
2017-06-24T08:44:21.862Z,19.9
2017-06-24T08:45:40.571Z,20
2017-06-24T08:46:59.290Z,20
2017-06-24T08:48:17.961Z,20
2017-06-24T08:49:36.657Z,20
2017-06-24T08:50:55.370Z,20
2017-06-24T08:52:14.068Z,20.1
2017-06-24T08:53:32.764Z,20.1
2017-06-24T08:54:51.478Z,20.2
2017-06-24T08:56:10.193Z,20.2
2017-06-24T08:57:28.931Z,20.2
2017-06-24T08:58:47.655Z,20.2
2017-06-24T09:00:06.374Z,20.3
2017-06-24T09:01:25.083Z,20.2
2017-06-24T09:02:43.756Z,20.2
2017-06-24T09:04:02.446Z,20.1
2017-06-24T09:05:21.121Z,20.2
2017-06-24T09:06:39.807Z,20.3
2017-06-24T09:07:58.473Z,20.5
2017-06-24T09:09:17.192Z,20.7
2017-06-24T09:10:35.890Z,20.7
2017-06-24T09:11:54.572Z,20.6
2017-06-24T09:13:13.272Z,20.6
2017-06-24T09:14:31.943Z,20.7
2017-06-24T09:15:50.643Z,20.8
2017-06-24T09:17:09.365Z,20.8
2017-06-24T09:18:28.038Z,20.7
2017-06-24T09:19:46.706Z,20.5
2017-06-24T09:21:05.404Z,20.4
2017-06-24T09:22:24.101Z,20.4
2017-06-24T09:23:42.773Z,20.5
2017-06-24T09:25:01.485Z,20.5
2017-06-24T09:26:20.161Z,20.4
2017-06-24T09:27:38.848Z,20.5
2017-06-24T09:28:57.571Z,20.5
2017-06-24T09:30:16.243Z,20.5
2017-06-24T09:31:34.952Z,20.6
2017-06-24T09:32:53.674Z,20.7
2017-06-24T09:34:12.432Z,20.8
2017-06-24T09:35:31.102Z,20.9
2017-06-24T09:36:49.799Z,21
2017-06-24T09:38:08.464Z,21.1
2017-06-24T09:39:27.135Z,20.9
2017-06-24T09:40:45.870Z,20.9
2017-06-24T09:42:04.593Z,20.7
2017-06-24T09:43:23.264Z,20.6
2017-06-24T09:44:41.931Z,20.6
2017-06-24T09:46:00.622Z,20.7
2017-06-24T09:47:19.344Z,20.8
2017-06-24T09:48:38.016Z,20.7
2017-06-24T09:49:56.693Z,20.7
2017-06-24T09:51:15.370Z,20.6
2017-06-24T09:52:34.089Z,20.7
2017-06-24T09:53:52.763Z,20.7
2017-06-24T09:55:11.489Z,20.6
2017-06-24T09:56:30.198Z,20.6
2017-06-24T09:57:48.913Z,20.6
2017-06-24T09:59:07.644Z,20.6
2017-06-24T10:00:26.315Z,20.8
2017-06-24T10:01:44.980Z,20.8
2017-06-24T10:03:03.723Z,20.7
2017-06-24T10:04:22.465Z,20.8
2017-06-24T10:05:41.138Z,20.8
2017-06-24T10:06:59.859Z,20.9
2017-06-24T10:08:18.583Z,21.1
2017-06-24T10:09:37.301Z,21
2017-06-24T10:10:56.019Z,20.9
2017-06-24T10:12:14.716Z,20.8
2017-06-24T10:13:33.411Z,20.9
2017-06-24T10:14:52.127Z,20.7
2017-06-24T10:16:10.799Z,20.7
2017-06-24T10:17:29.472Z,20.7
2017-06-24T10:18:48.157Z,20.8
2017-06-24T10:20:06.831Z,20.8
2017-06-24T10:21:25.496Z,20.9
2017-06-24T10:22:44.174Z,21
2017-06-24T10:24:02.852Z,21
2017-06-24T10:25:21.568Z,21
2017-06-24T10:26:40.241Z,20.9
2017-06-24T10:27:59.013Z,21
2017-06-24T10:29:17.686Z,20.9
2017-06-24T10:30:36.354Z,20.9
2017-06-24T10:31:55.037Z,20.9
2017-06-24T10:33:13.779Z,20.9
2017-06-24T10:34:32.463Z,21
2017-06-24T10:35:51.132Z,21
2017-06-24T10:37:09.803Z,21.2
2017-06-24T10:38:28.499Z,21.3
2017-06-24T10:39:47.207Z,21.1
2017-06-24T10:41:05.932Z,21.1
2017-06-24T10:42:24.598Z,21
2017-06-24T10:43:43.276Z,21.1
2017-06-24T10:45:01.966Z,21.3
2017-06-24T10:46:20.630Z,21.4
2017-06-24T10:47:39.342Z,21.4
2017-06-24T10:48:58.067Z,21.4
2017-06-24T10:50:16.760Z,21.4
2017-06-24T10:51:35.432Z,21.5
2017-06-24T10:52:54.129Z,21.5
2017-06-24T10:54:12.807Z,21.5
2017-06-24T10:55:31.505Z,21.5
2017-06-24T10:56:50.179Z,21.5
2017-06-24T10:58:08.876Z,21.4
2017-06-24T10:59:27.597Z,21.4
2017-06-24T11:00:46.288Z,21.4
2017-06-24T11:02:04.958Z,21.5
2017-06-24T11:03:23.664Z,21.6
2017-06-24T11:04:42.399Z,21.8
2017-06-24T11:06:01.086Z,21.8
2017-06-24T11:07:19.757Z,22
2017-06-24T11:08:38.483Z,22.1
2017-06-24T11:09:57.152Z,22.1
2017-06-24T11:11:15.855Z,22.2
2017-06-24T11:12:34.569Z,22.1
2017-06-24T11:13:53.263Z,22
2017-06-24T11:15:11.940Z,22.3
2017-06-24T11:16:30.632Z,22.5
2017-06-24T11:17:49.312Z,22.7
2017-06-24T11:19:08.036Z,22.8
2017-06-24T11:20:26.704Z,22.8
2017-06-24T11:21:45.455Z,22.8
2017-06-24T11:23:04.142Z,22.8
2017-06-24T11:24:22.820Z,22.9
2017-06-24T11:25:41.539Z,22.9
2017-06-24T11:27:00.277Z,23
2017-06-24T11:28:19.018Z,23
2017-06-24T11:29:37.729Z,23.2
2017-06-24T11:30:56.423Z,23.5
2017-06-24T11:32:15.144Z,23.5
2017-06-24T11:33:33.863Z,23.5
2017-06-24T11:34:52.563Z,23.4
2017-06-24T11:36:11.236Z,23.3
2017-06-24T11:37:29.966Z,23.1
2017-06-24T11:38:48.666Z,23.1
2017-06-24T11:40:07.405Z,23.2
2017-06-24T11:41:26.112Z,23.4
2017-06-24T11:42:44.791Z,23.2
2017-06-24T11:44:03.512Z,23.4
2017-06-24T11:45:22.188Z,23.5
2017-06-24T11:46:40.935Z,23.7
2017-06-24T11:47:59.608Z,23.7
2017-06-24T11:49:18.270Z,23.6
2017-06-24T11:50:36.960Z,23.3
2017-06-24T11:51:55.688Z,23.3
2017-06-24T11:53:14.419Z,23.5
2017-06-24T11:54:33.115Z,23.8
2017-06-24T11:55:51.788Z,24.3
2017-06-24T11:57:10.463Z,25.1
2017-06-24T11:58:29.175Z,26.4
2017-06-24T11:59:47.842Z,29.5
2017-06-24T12:01:06.560Z,34.1
2017-06-24T12:02:25.254Z,34.7
2017-06-24T12:03:43.957Z,35.2
2017-06-24T12:05:02.643Z,35.4
2017-06-24T12:06:21.318Z,35.5
2017-06-24T12:07:40.034Z,35.6
2017-06-24T12:08:58.728Z,35.7
2017-06-24T12:10:17.489Z,35.7
2017-06-24T12:11:36.158Z,35.8
2017-06-24T12:12:54.822Z,35.8
2017-06-24T12:14:13.504Z,35.9
2017-06-24T12:15:32.171Z,35.9
2017-06-24T12:16:50.876Z,36
2017-06-24T12:18:09.572Z,36
2017-06-24T12:19:28.261Z,36.1
2017-06-24T12:20:46.934Z,36.3
2017-06-24T12:22:05.650Z,36.3
2017-06-24T12:23:24.350Z,36.4
2017-06-24T12:24:43.032Z,36.5
2017-06-24T12:26:01.707Z,36.5
2017-06-24T12:27:20.400Z,36.6
2017-06-24T12:28:39.098Z,36.7
2017-06-24T12:29:57.773Z,36.7
2017-06-24T12:31:16.455Z,36.7
2017-06-24T12:32:35.125Z,36.7
2017-06-24T12:33:53.817Z,36.7
2017-06-24T12:35:12.549Z,36.7
2017-06-24T12:36:31.217Z,36.7
2017-06-24T12:37:49.880Z,36.8
2017-06-24T12:39:08.562Z,36.8
2017-06-24T12:40:27.258Z,36.9
2017-06-24T12:41:45.944Z,37
2017-06-24T12:43:04.617Z,37
2017-06-24T12:44:23.293Z,36.9
2017-06-24T12:45:42.012Z,36.6
2017-06-24T12:47:00.687Z,36.7
2017-06-24T12:48:19.360Z,36.7
2017-06-24T12:49:38.059Z,36.8
2017-06-24T12:50:56.761Z,36.8
2017-06-24T12:52:15.426Z,36.8
2017-06-24T12:53:34.164Z,36.9
2017-06-24T12:54:52.838Z,36.8
2017-06-24T12:56:11.583Z,36.7
2017-06-24T12:57:30.266Z,36.7
2017-06-24T12:58:48.969Z,36.8
2017-06-24T13:00:07.635Z,36.9
2017-06-24T13:01:26.370Z,36.9
2017-06-24T13:02:45.044Z,36.8
2017-06-24T13:04:03.717Z,36.7
2017-06-24T13:05:22.503Z,36.7
2017-06-24T13:06:41.221Z,36.7
2017-06-24T13:07:59.941Z,36.7
2017-06-24T13:09:18.613Z,36.6
2017-06-24T13:10:37.302Z,36.7
2017-06-24T13:11:56.037Z,36.9
2017-06-24T13:13:14.719Z,36.9
2017-06-24T13:14:33.427Z,36.8
2017-06-24T13:15:52.139Z,36.8
2017-06-24T13:17:10.840Z,36.7
2017-06-24T13:18:29.558Z,36.8
2017-06-24T13:19:48.228Z,37
2017-06-24T13:21:06.981Z,37
2017-06-24T13:22:25.687Z,37
2017-06-24T13:23:44.416Z,36.8
2017-06-24T13:25:03.113Z,36.9
2017-06-24T13:26:21.781Z,37
2017-06-24T13:27:40.508Z,37.2
2017-06-24T13:28:59.218Z,37.2
2017-06-24T13:30:17.894Z,37.1
2017-06-24T13:31:36.569Z,37.1
2017-06-24T13:32:55.253Z,37
2017-06-24T13:34:13.950Z,37.1
2017-06-24T13:35:32.658Z,37.2
2017-06-24T13:36:51.363Z,37.1
2017-06-24T13:38:10.058Z,37.2
2017-06-24T13:39:28.734Z,37.2
2017-06-24T13:40:47.468Z,37.3
2017-06-24T13:42:06.199Z,37.2
2017-06-24T13:43:24.909Z,37.2
2017-06-24T13:44:43.577Z,37.3
2017-06-24T13:46:02.250Z,37.3
2017-06-24T13:47:20.915Z,37.4
2017-06-24T13:48:39.628Z,37.5
2017-06-24T13:49:58.304Z,37.4
2017-06-24T13:51:17.002Z,37.2
2017-06-24T13:52:35.693Z,37.2
2017-06-24T13:53:54.423Z,37.2
2017-06-24T13:55:13.088Z,37.1
2017-06-24T13:56:31.808Z,37.1
2017-06-24T13:57:50.532Z,37.4
2017-06-24T13:59:09.253Z,37.4
2017-06-24T14:00:27.924Z,37.4
2017-06-24T14:01:46.598Z,37.4
2017-06-24T14:03:05.321Z,37.4
2017-06-24T14:04:24.042Z,37.1
2017-06-24T14:05:42.708Z,36.9
2017-06-24T14:07:01.441Z,36.9
2017-06-24T14:08:20.147Z,37
2017-06-24T14:09:38.873Z,37
2017-06-24T14:10:57.595Z,37.1
2017-06-24T14:12:16.261Z,37.2
2017-06-24T14:13:34.930Z,37.2
2017-06-24T14:14:53.614Z,37.3
2017-06-24T14:16:12.339Z,37.3
2017-06-24T14:17:31.005Z,37.2
2017-06-24T14:18:49.677Z,37.1
2017-06-24T14:20:08.383Z,37
2017-06-24T14:21:27.059Z,36.9
2017-06-24T14:22:45.736Z,37.1
2017-06-24T14:24:04.469Z,37
2017-06-24T14:25:23.163Z,37
2017-06-24T14:26:41.831Z,36.9
2017-06-24T14:28:00.496Z,36.9
2017-06-24T14:29:19.216Z,37
2017-06-24T14:30:37.902Z,37.2
2017-06-24T14:31:56.580Z,37.2
2017-06-24T14:33:15.244Z,37.2
2017-06-24T14:34:33.940Z,37.1
2017-06-24T14:35:52.641Z,37.1
2017-06-24T14:37:11.307Z,36.9
2017-06-24T14:38:30.030Z,36.6
2017-06-24T14:39:48.723Z,35.8
2017-06-24T14:41:07.430Z,35.2
2017-06-24T14:42:26.108Z,34.9
2017-06-24T14:43:44.786Z,34.8
2017-06-24T14:45:03.454Z,34.5
2017-06-24T14:46:22.149Z,34.2
2017-06-24T14:47:40.827Z,32.8
2017-06-24T14:48:59.497Z,31.5
2017-06-24T14:50:18.165Z,31
2017-06-24T14:51:36.839Z,30.7
2017-06-24T14:52:55.559Z,29.8
2017-06-24T14:54:14.277Z,28.9
2017-06-24T14:55:33.034Z,28.7
2017-06-24T14:56:51.775Z,28.3
2017-06-24T14:58:10.491Z,27.9
2017-06-24T14:59:29.174Z,27.5
2017-06-24T15:00:47.840Z,27.2
2017-06-24T15:02:06.564Z,26.9
2017-06-24T15:03:25.233Z,27
2017-06-24T15:04:43.974Z,27
2017-06-24T15:06:02.654Z,26.9
2017-06-24T15:07:21.361Z,27
2017-06-24T15:08:40.066Z,26.9
2017-06-24T15:09:58.752Z,26.9
2017-06-24T15:11:17.456Z,26.8
2017-06-24T15:12:36.204Z,26.4
2017-06-24T15:13:54.876Z,26.2
2017-06-24T15:15:13.607Z,25.9
2017-06-24T15:16:32.337Z,25.7
2017-06-24T15:17:51.021Z,25.6
2017-06-24T15:19:09.691Z,25.5
2017-06-24T15:20:28.361Z,25.6
2017-06-24T15:21:47.035Z,25.8
2017-06-24T15:23:05.779Z,25.7
2017-06-24T15:24:24.501Z,25.7
2017-06-24T15:25:43.176Z,25.7
2017-06-24T15:27:01.903Z,25.5
2017-06-24T15:28:20.604Z,25.7
2017-06-24T15:29:39.295Z,25.6
2017-06-24T15:30:57.977Z,25.7
2017-06-24T15:32:16.654Z,25.5
2017-06-24T15:33:35.335Z,25.4
2017-06-24T15:34:54.033Z,25.1
2017-06-24T15:36:12.755Z,25
2017-06-24T15:37:31.434Z,25
2017-06-24T15:38:50.168Z,25.2
2017-06-24T15:40:08.920Z,26.2
2017-06-24T15:41:27.609Z,27.6
2017-06-24T15:42:46.284Z,27.4
2017-06-24T15:44:05.043Z,26.7
2017-06-24T15:45:23.718Z,26.4
2017-06-24T15:46:42.420Z,26.8
2017-06-24T15:48:01.104Z,30.1
2017-06-24T15:49:19.797Z,34.2
2017-06-24T15:50:38.460Z,34.3
2017-06-24T15:51:57.184Z,31.9
2017-06-24T15:53:15.854Z,30
2017-06-24T15:54:34.584Z,28.9
2017-06-24T15:55:53.301Z,28.6
2017-06-24T15:57:11.969Z,30.9
2017-06-24T15:58:30.704Z,33.1
2017-06-24T15:59:49.454Z,34.6
2017-06-24T16:01:08.176Z,35.2
2017-06-24T16:02:26.851Z,35.7
2017-06-24T16:03:45.566Z,36.1
2017-06-24T16:05:04.239Z,36.3
2017-06-24T16:06:22.911Z,36.5
2017-06-24T16:07:41.607Z,36.2
2017-06-24T16:09:00.331Z,35.8
2017-06-24T16:10:19.062Z,35.9
2017-06-24T16:11:37.777Z,35.5
2017-06-24T16:12:56.492Z,35.6
2017-06-24T16:14:15.188Z,36
2017-06-24T16:15:33.888Z,36.2
2017-06-24T16:16:52.566Z,36.4
2017-06-24T16:18:11.288Z,36.2
2017-06-24T16:19:29.952Z,36
2017-06-24T16:20:48.644Z,35.7
2017-06-24T16:22:07.393Z,35.7
2017-06-24T16:23:26.062Z,35.4
2017-06-24T16:24:44.735Z,35.2
2017-06-24T16:26:03.438Z,35.2
2017-06-24T16:27:22.168Z,35.2
2017-06-24T16:28:40.838Z,35.3
2017-06-24T16:29:59.572Z,35.2
2017-06-24T16:31:18.284Z,35
2017-06-24T16:32:36.977Z,34.8
2017-06-24T16:33:55.647Z,34.8
2017-06-24T16:35:14.326Z,34.8
2017-06-24T16:36:33.019Z,34.9
2017-06-24T16:37:51.745Z,34.9
2017-06-24T16:39:10.415Z,34.8
2017-06-24T16:40:29.157Z,34.9
2017-06-24T16:41:47.862Z,34.9
2017-06-24T16:43:06.587Z,34.8
2017-06-24T16:44:25.322Z,34.8
2017-06-24T16:45:44.073Z,34.9
2017-06-24T16:47:02.756Z,34.9
2017-06-24T16:48:21.432Z,34.7
2017-06-24T16:49:40.120Z,34.3
2017-06-24T16:50:58.809Z,32.6
2017-06-24T16:52:17.545Z,30.5
2017-06-24T16:53:36.218Z,29.4
2017-06-24T16:54:54.886Z,29.1
2017-06-24T16:56:13.564Z,28.1
2017-06-24T16:57:32.265Z,27.3
2017-06-24T16:58:50.962Z,26.6
2017-06-24T17:00:09.631Z,26.4
2017-06-24T17:01:28.370Z,26
2017-06-24T17:02:47.080Z,25.7
2017-06-24T17:04:05.781Z,25.5
2017-06-24T17:05:24.449Z,25.2
2017-06-24T17:06:43.120Z,25
2017-06-24T17:08:01.850Z,24.8
2017-06-24T17:09:20.571Z,24.6
2017-06-24T17:10:39.249Z,24.8
2017-06-24T17:11:57.922Z,30.8
2017-06-24T17:13:16.611Z,34.4
2017-06-24T17:14:35.322Z,34.7
2017-06-24T17:15:54.023Z,34.7
2017-06-24T17:17:12.706Z,34.5
2017-06-24T17:18:31.431Z,34.6
2017-06-24T17:19:50.140Z,34.3
2017-06-24T17:21:08.830Z,31.1
2017-06-24T17:22:27.546Z,29
2017-06-24T17:23:46.233Z,27.6
2017-06-24T17:25:04.916Z,26.5
2017-06-24T17:26:23.586Z,26.5
2017-06-24T17:27:42.310Z,28.3
2017-06-24T17:29:01.015Z,29.9
2017-06-24T17:30:19.680Z,30.8
2017-06-24T17:31:38.379Z,33.6
2017-06-24T17:32:57.121Z,30.8
2017-06-24T17:34:15.796Z,31
2017-06-24T17:35:34.470Z,31.8